Time;durP1;ratioP1;P1;durP2;ratioP2;P2;SDS_P1;SDS_P2;PMS_P1;PMS_P2;Temp;Humidity;BMP_temperature;BMP_pressure;BME280_temperature;BME280_humidity;BME280_pressure;Samples;Min_cycle;Max_cycle;Signal;HPM_P1;HPM_P2
2022/01/06 00:01:12;;;;;;;;;54.25;39.00;;;;;3.53;66.35;101169.13;5055166;28;68551;-63
2022/01/06 00:03:37;;;;;;;;;53.25;40.00;;;;;3.52;66.46;101172.63;5057434;28;45427;-65
2022/01/06 00:06:06;;;;;;;;;45.50;33.75;;;;;3.55;66.35;101171.66;5057424;28;45488;-65
2022/01/06 00:08:33;;;;;;;;;48.25;37.25;;;;;3.52;66.11;101175.22;5056137;28;45525;-64
2022/01/06 00:10:58;;;;;;;;;46.75;37.00;;;;;3.53;66.23;101171.72;5072352;28;46292;-62
2022/01/06 00:13:27;;;;;;;;;52.25;35.75;;;;;3.50;66.43;101171.84;5056364;28;60648;-64
2022/01/06 00:18:37;;;;;;;;;42.25;37.25;;;;;3.52;66.45;101166.59;5056882;28;45281;-66
2022/01/06 00:23:46;;;;;;;;;47.25;36.50;;;;;3.52;66.25;101157.03;5057029;28;45238;-64
2022/01/06 00:26:11;;;;;;;;;48.75;37.25;;;;;3.52;66.36;101161.41;5071648;28;69509;-64
2022/01/06 00:28:37;;;;;;;;;41.50;35.75;;;;;3.50;66.53;101158.03;5055462;28;48705;-64
2022/01/06 00:31:02;;;;;;;;;45.00;36.25;;;;;3.49;66.22;101162.38;5056927;28;45430;-63
2022/01/06 00:33:29;;;;;;;;;44.75;35.25;;;;;3.48;66.29;101165.06;5071651;28;66413;-66
2022/01/06 00:35:54;;;;;;;;;39.25;32.75;;;;;3.47;66.41;101173.78;5056732;28;45286;-64
2022/01/06 00:38:21;;;;;;;;;51.25;37.00;;;;;3.46;66.44;101164.28;5055064;28;52525;-67
2022/01/06 00:40:47;;;;;;;;;45.50;34.25;;;;;3.44;66.22;101163.53;5056609;28;45706;-64
2022/01/06 00:43:12;;;;;;;;;48.00;39.25;;;;;3.44;66.56;101166.13;5056759;28;45238;-64
2022/01/06 00:45:38;;;;;;;;;48.25;34.50;;;;;3.44;66.41;101171.31;5072395;28;45386;-64
2022/01/06 00:48:06;;;;;;;;;52.00;37.50;;;;;3.44;66.47;101177.38;5056602;28;45988;-64
2022/01/06 00:50:32;;;;;;;;;41.50;36.25;;;;;3.42;66.20;101180.03;5055236;28;45903;-64
2022/01/06 00:52:57;;;;;;;;;48.00;37.25;;;;;3.41;66.30;101180.13;5056426;28;45293;-65
2022/01/06 00:55:23;;;;;;;;;53.00;40.00;;;;;3.40;66.30;101192.25;5055379;28;70743;-64
2022/01/06 00:57:48;;;;;;;;;58.00;40.00;;;;;3.40;66.26;101181.03;5071949;28;46337;-63
2022/01/06 01:00:14;;;;;;;;;42.50;36.00;;;;;3.39;66.24;101190.56;5055200;28;45290;-67
2022/01/06 01:02:39;;;;;;;;;56.75;40.75;;;;;3.38;66.25;101191.47;5056507;28;45230;-65
2022/01/06 01:05:05;;;;;;;;;54.00;40.25;;;;;3.37;66.39;101186.38;5071570;28;61561;-64
2022/01/06 01:07:30;;;;;;;;;48.50;36.75;;;;;3.36;66.37;101195.91;5055037;28;45411;-65
2022/01/06 01:09:55;;;;;;;;;42.75;37.25;;;;;3.34;66.35;101195.13;5056047;28;50743;-63
2022/01/06 01:12:24;;;;;;;;;44.00;35.25;;;;;3.33;66.35;101190.03;5055849;28;60746;-66
2022/01/06 01:15:05;;;;;;;;;45.75;35.25;;;;;3.31;66.41;101184.91;5056439;28;45480;-67
2022/01/06 01:17:31;;;;;;;;;39.00;32.25;;;;;3.30;66.49;101193.59;5069984;28;45436;-61
2022/01/06 01:19:57;;;;;;;;;35.75;31.25;;;;;3.26;66.61;101187.72;5056192;28;45448;-63
2022/01/06 01:22:22;;;;;;;;;41.25;30.00;;;;;3.26;66.78;101185.13;5056385;28;45487;-63
2022/01/06 01:24:47;;;;;;;;;36.00;29.75;;;;;3.29;66.82;101189.31;5054502;28;57892;-64
2022/01/06 01:27:15;;;;;;;;;40.50;31.00;;;;;3.30;66.69;101195.38;5056107;28;49918;-63
2022/01/06 01:29:55;;;;;;;;;45.00;35.00;;;;;3.29;66.73;101191.91;5056161;28;45926;-65
2022/01/06 01:32:28;;;;;;;;;39.00;35.50;;;;;3.29;67.14;101189.31;5054965;28;45535;-63
2022/01/06 01:34:59;;;;;;;;;38.25;34.25;;;;;3.28;66.57;101192.81;5071038;28;45351;-62
2022/01/06 01:37:24;;;;;;;;;44.50;33.50;;;;;3.30;66.74;101192.78;5056086;28;45570;-65
2022/01/06 01:39:50;;;;;;;;;38.00;31.00;;;;;3.32;66.85;101193.53;5057826;28;45431;-62
2022/01/06 01:42:15;;;;;;;;;38.50;32.50;;;;;3.30;66.88;101195.38;5058783;28;67352;-65
2022/01/06 01:44:42;;;;;;;;;41.00;33.75;;;;;3.30;66.89;101193.59;5074529;28;63337;-64
2022/01/06 01:47:14;;;;;;;;;49.50;32.75;;;;;3.30;66.67;101205.75;5059523;28;45476;-61
2022/01/06 01:52:10;;;;;;;;;37.75;28.50;;;;;3.29;66.52;101202.31;5059459;28;45365;-64
2022/01/06 01:54:36;;;;;;;;;37.75;30.50;;;;;3.30;66.84;101198.78;5058724;28;52130;-64
2022/01/06 01:57:01;;;;;;;;;32.50;28.25;;;;;3.30;66.69;101206.59;5058257;28;74235;-63
2022/01/06 01:59:26;;;;;;;;;33.00;28.50;;;;;3.30;66.97;101213.56;5074743;28;49868;-65
2022/01/06 02:01:53;;;;;;;;;40.75;32.25;;;;;3.30;66.73;101216.16;5059412;28;45686;-62
2022/01/06 02:04:19;;;;;;;;;29.75;25.50;;;;;3.31;66.74;101220.44;5059341;28;45290;-63
2022/01/06 02:06:44;;;;;;;;;33.75;28.50;;;;;3.29;66.73;101220.47;5058303;28;69583;-64
2022/01/06 02:09:10;;;;;;;;;36.25;29.75;;;;;3.29;66.83;101217.06;5058445;28;65311;-64
2022/01/06 02:11:35;;;;;;;;;33.25;28.25;;;;;3.30;66.55;101224.75;5059387;28;45295;-64
2022/01/06 02:14:04;;;;;;;;;32.00;25.00;;;;;3.26;66.38;101216.28;5057059;28;67321;-64
2022/01/06 02:16:30;;;;;;;;;25.50;17.75;;;;;3.25;66.72;101208.56;5059125;28;45566;-63
2022/01/06 02:18:55;;;;;;;;;38.50;26.50;;;;;3.22;66.56;101213.88;5059007;28;45207;-65
2022/01/06 02:21:20;;;;;;;;;32.00;27.25;;;;;3.16;66.31;101209.00;5058386;28;60411;-65
2022/01/06 02:23:46;;;;;;;;;33.50;27.00;;;;;3.12;66.58;101210.88;5057482;28;51519;-62
2022/01/06 02:26:11;;;;;;;;;30.75;25.50;;;;;3.09;66.35;101217.09;5058775;28;45440;-65
2022/01/06 02:28:37;;;;;;;;;30.50;25.25;;;;;3.06;66.66;101218.97;5057750;28;45328;-65
2022/01/06 02:31:02;;;;;;;;;31.00;27.00;;;;;3.05;66.60;101218.13;5057230;28;52777;-64
2022/01/06 02:33:28;;;;;;;;;33.00;28.75;;;;;3.02;66.76;101215.69;5058315;28;60712;-64
2022/01/06 02:35:54;;;;;;;;;29.50;24.25;;;;;3.00;66.85;101211.44;5058664;28;46015;-63
2022/01/06 02:38:19;;;;;;;;;35.00;27.25;;;;;2.94;66.76;101221.19;5057492;28;45326;-63
2022/01/06 02:40:45;;;;;;;;;34.75;28.50;;;;;2.91;66.60;101223.09;5074318;28;45325;-65
2022/01/06 02:43:13;;;;;;;;;36.50;27.50;;;;;2.86;66.04;101220.72;5057444;28;45379;-66
2022/01/06 02:45:38;;;;;;;;;36.50;31.25;;;;;2.80;66.22;101216.63;5058409;28;45719;-63
2022/01/06 02:48:10;;;;;;;;;33.75;29.50;;;;;2.81;66.81;101222.69;5057702;28;65292;-63
2022/01/06 02:50:44;;;;;;;;;36.50;29.25;;;;;2.79;66.76;101217.53;5057514;28;45483;-63
2022/01/06 02:53:10;;;;;;;;;36.50;30.00;;;;;2.79;66.69;101225.34;5058579;28;45319;-63
2022/01/06 02:55:38;;;;;;;;;35.50;26.25;;;;;2.79;66.38;101216.72;5073829;28;46210;-65
2022/01/06 02:58:04;;;;;;;;;34.00;26.50;;;;;2.79;66.54;101219.31;5057087;28;45221;-64
2022/01/06 03:00:29;;;;;;;;;33.25;30.75;;;;;2.77;66.33;101226.31;5058430;28;45250;-64
2022/01/06 03:02:55;;;;;;;;;35.75;25.25;;;;;2.75;66.39;101228.97;5057183;28;45622;-63
2022/01/06 03:05:20;;;;;;;;;35.75;24.25;;;;;2.74;66.38;101232.47;5058037;28;45493;-63
2022/01/06 03:07:46;;;;;;;;;26.75;22.75;;;;;2.73;66.70;101229.97;5073705;28;46707;-65
2022/01/06 03:10:14;;;;;;;;;32.00;26.25;;;;;2.72;66.69;101231.69;5057162;28;45282;-62
2022/01/06 03:12:39;;;;;;;;;30.75;28.00;;;;;2.72;66.96;101226.50;5040567;28;45688;-63
2022/01/06 03:15:09;;;;;;;;;29.25;24.75;;;;;2.71;67.00;101232.63;5056125;28;67639;-65
2022/01/06 03:17:35;;;;;;;;;31.75;22.75;;;;;2.70;67.27;101237.88;5073588;28;45846;-67
2022/01/06 03:20:02;;;;;;;;;31.00;23.00;;;;;2.70;67.31;101237.88;5056769;28;45336;-65
2022/01/06 03:22:28;;;;;;;;;24.00;23.50;;;;;2.70;67.51;101253.47;5073951;28;45189;-62
2022/01/06 03:24:53;;;;;;;;;25.25;21.25;;;;;2.70;67.54;101250.84;5057806;28;46246;-62
2022/01/06 03:27:18;;;;;;;;;29.00;22.25;;;;;2.69;67.75;101257.78;5056830;28;73141;-64
2022/01/06 03:29:44;;;;;;;;;31.50;24.25;;;;;2.69;67.94;101255.19;5057152;28;64718;-64
2022/01/06 03:32:09;;;;;;;;;31.25;24.50;;;;;2.71;68.33;101258.56;5073552;28;45350;-63
2022/01/06 03:34:36;;;;;;;;;23.50;21.50;;;;;2.71;68.23;101258.56;5057352;28;53569;-65
2022/01/06 03:37:03;;;;;;;;;31.50;25.00;;;;;2.74;68.21;101252.41;5056468;28;45477;-64
2022/01/06 03:39:28;;;;;;;;;30.00;25.25;;;;;2.75;68.24;101260.13;5057785;28;45394;-63
2022/01/06 03:41:54;;;;;;;;;22.00;18.75;;;;;2.78;68.58;101269.53;5057685;28;45560;-63
2022/01/06 03:44:19;;;;;;;;;25.75;21.00;;;;;2.79;68.41;101259.06;5073293;28;46045;-62
2022/01/06 03:46:44;;;;;;;;;31.75;24.00;;;;;2.84;68.61;101252.84;5056938;28;64749;-64
2022/01/06 03:49:10;;;;;;;;;28.75;24.50;;;;;2.86;68.29;101261.41;5055782;28;61019;-63
2022/01/06 03:51:35;;;;;;;;;24.00;21.25;;;;;2.87;68.22;101263.09;5072353;28;65950;-64
2022/01/06 03:54:00;;;;;;;;;25.75;22.50;;;;;2.88;68.37;101259.56;5055879;28;46721;-68
2022/01/06 03:56:26;;;;;;;;;28.75;22.00;;;;;2.89;68.16;101266.47;5057010;28;60151;-63
2022/01/06 03:58:51;;;;;;;;;27.00;21.50;;;;;2.88;68.20;101262.19;5056733;28;61346;-64
2022/01/06 04:01:17;;;;;;;;;32.50;25.00;;;;;2.91;68.32;101262.03;5057360;28;45573;-63
2022/01/06 04:03:44;;;;;;;;;28.00;21.75;;;;;2.93;68.40;101258.44;5056337;28;64598;-64
2022/01/06 04:06:10;;;;;;;;;22.75;20.75;;;;;2.96;68.00;101265.28;5056072;28;45428;-64
2022/01/06 04:08:35;;;;;;;;;28.50;22.25;;;;;2.99;68.32;101265.13;5057293;28;45315;-62
2022/01/06 04:11:01;;;;;;;;;27.25;21.00;;;;;3.02;67.88;101262.41;5057354;28;45242;-65
2022/01/06 04:13:26;;;;;;;;;22.00;21.00;;;;;3.05;67.84;101261.41;5056961;28;45381;-64
2022/01/06 04:15:52;;;;;;;;;30.75;23.25;;;;;3.05;67.97;101256.22;5055878;28;45759;-63
2022/01/06 04:18:17;;;;;;;;;24.75;19.50;;;;;3.04;67.89;101260.59;5057235;28;45481;-65
2022/01/06 04:20:42;;;;;;;;;27.50;22.50;;;;;3.01;67.97;101254.66;5056288;28;62218;-66
2022/01/06 04:23:08;;;;;;;;;26.25;24.00;;;;;3.03;67.68;101258.91;5055635;28;50405;-65
2022/01/06 04:25:33;;;;;;;;;30.25;23.00;;;;;3.02;68.15;101270.19;5056059;28;69851;-63
2022/01/06 04:27:59;;;;;;;;;31.25;23.00;;;;;3.00;67.79;101266.81;5056371;28;56963;-64
2022/01/06 04:30:24;;;;;;;;;40.25;23.50;;;;;3.01;67.69;101268.50;5056235;28;60134;-66
2022/01/06 04:32:49;;;;;;;;;22.50;19.00;;;;;2.99;67.75;101275.53;5056098;28;61632;-63
2022/01/06 04:35:15;;;;;;;;;30.50;25.75;;;;;2.99;67.97;101272.94;5054843;28;67998;-64
2022/01/06 04:37:40;;;;;;;;;27.75;21.00;;;;;2.95;67.66;101276.56;5056214;28;59177;-65
2022/01/06 04:40:06;;;;;;;;;26.75;24.50;;;;;2.90;67.83;101274.19;5056118;28;64293;-64
2022/01/06 04:42:31;;;;;;;;;34.50;22.50;;;;;2.88;68.25;101285.53;5055511;28;46302;-64
2022/01/06 04:44:57;;;;;;;;;28.25;23.50;;;;;2.86;68.20;101282.16;5054714;28;70371;-66
2022/01/06 04:47:22;;;;;;;;;27.50;22.00;;;;;2.86;68.08;101277.84;5072515;28;45286;-67
2022/01/06 04:49:47;;;;;;;;;29.75;25.25;;;;;2.85;68.29;101276.16;5054572;28;69780;-63
2022/01/06 04:52:13;;;;;;;;;35.75;27.50;;;;;2.87;68.43;101282.13;5055616;28;72744;-66
2022/01/06 04:54:38;;;;;;;;;36.00;28.00;;;;;2.87;68.11;101286.44;5055380;28;69086;-64
2022/01/06 04:57:04;;;;;;;;;27.50;23.75;;;;;2.87;68.38;101283.84;5055879;28;62258;-63
2022/01/06 04:59:29;;;;;;;;;26.25;23.25;;;;;2.86;68.44;101279.56;5056745;28;45252;-62
2022/01/06 05:01:54;;;;;;;;;22.25;20.75;;;;;2.89;68.69;101279.44;5055663;28;65087;-63
2022/01/06 05:04:20;;;;;;;;;36.00;25.50;;;;;2.91;68.35;101282.81;5071186;28;70947;-65
2022/01/06 05:06:45;;;;;;;;;26.50;22.75;;;;;2.93;68.28;101287.00;5071451;28;65150;-61
2022/01/06 05:09:11;;;;;;;;;29.50;27.25;;;;;2.92;68.30;101293.09;5056450;28;45474;-64
2022/01/06 05:11:36;;;;;;;;;28.25;22.75;;;;;2.92;68.45;101284.50;5056300;28;46313;-63
2022/01/06 05:14:01;;;;;;;;;27.25;24.75;;;;;2.91;68.07;101285.41;5056265;28;67141;-64
2022/01/06 05:16:27;;;;;;;;;39.50;33.75;;;;;2.88;67.67;101288.13;5059451;28;60527;-64
2022/01/06 05:18:52;;;;;;;;;37.50;31.75;;;;;2.86;67.84;101293.41;5060086;28;45373;-65
2022/01/06 05:21:18;;;;;;;;;40.50;34.50;;;;;2.82;67.78;101297.03;5059744;28;45382;-64
2022/01/06 05:23:43;;;;;;;;;46.50;37.00;;;;;2.78;67.61;101304.09;5075523;28;45263;-66
2022/01/06 05:26:08;;;;;;;;;43.75;39.50;;;;;2.75;68.11;101303.41;5060080;28;45302;-66
2022/01/06 05:28:34;;;;;;;;;44.50;34.00;;;;;2.75;67.83;101304.22;5060013;28;45224;-64
2022/01/06 05:30:59;;;;;;;;;40.00;32.00;;;;;2.74;67.95;101305.16;5059744;28;45349;-62
2022/01/06 05:33:26;;;;;;;;;47.50;39.00;;;;;2.74;68.09;101315.53;5075331;28;45287;-64
2022/01/06 05:35:51;;;;;;;;;43.00;37.00;;;;;2.72;67.99;101309.56;5059883;28;45408;-62
2022/01/06 05:38:17;;;;;;;;;53.75;39.50;;;;;2.73;68.00;101321.63;5059777;28;45545;-66
2022/01/06 05:40:42;;;;;;;;;45.50;36.25;;;;;2.75;68.24;101322.41;5058555;28;70278;-63
2022/01/06 05:43:08;;;;;;;;;48.75;40.50;;;;;2.78;68.06;101319.66;5059221;28;50287;-65
2022/01/06 05:45:33;;;;;;;;;38.75;35.25;;;;;2.79;68.07;101308.38;5059656;28;45383;-64
2022/01/06 05:47:58;;;;;;;;;42.00;35.00;;;;;2.80;68.17;101314.44;5059528;28;45287;-63
2022/01/06 05:50:24;;;;;;;;;47.00;36.50;;;;;2.81;68.25;101318.72;5058507;28;69684;-65
2022/01/06 05:52:49;;;;;;;;;49.75;34.75;;;;;2.83;68.17;101319.50;5059362;28;45345;-64
2022/01/06 05:55:15;;;;;;;;;41.25;34.25;;;;;2.84;68.31;101320.31;5058673;28;60378;-63
2022/01/06 05:57:40;;;;;;;;;42.25;36.50;;;;;2.86;68.22;101318.50;5057135;28;68573;-62
2022/01/06 06:00:06;;;;;;;;;28.25;28.00;;;;;2.89;68.55;101319.22;5058471;28;62445;-64
2022/01/06 06:02:31;;;;;;;;;36.75;33.50;;;;;2.90;68.62;101317.47;5059071;28;46354;-65
2022/01/06 06:04:57;;;;;;;;;36.75;33.25;;;;;2.91;68.64;101326.94;5057487;28;59624;-65
2022/01/06 06:07:23;;;;;;;;;41.25;33.00;;;;;2.93;68.57;101330.31;5059301;28;45339;-63
2022/01/06 06:09:49;;;;;;;;;34.00;31.25;;;;;2.97;68.52;101337.88;5059043;28;45297;-61
2022/01/06 06:12:14;;;;;;;;;40.25;35.25;;;;;2.99;68.67;101342.16;5074729;28;45375;-64
2022/01/06 06:14:40;;;;;;;;;38.50;34.25;;;;;2.97;69.02;101337.88;5074352;28;54852;-66
2022/01/06 06:17:05;;;;;;;;;54.75;40.00;;;;;2.97;68.46;101344.84;5057047;28;62067;-66
2022/01/06 06:19:30;;;;;;;;;45.00;36.75;;;;;2.95;68.56;101344.06;5057891;28;71955;-66
2022/01/06 06:21:56;;;;;;;;;44.75;38.50;;;;;2.95;68.55;101344.06;5057966;28;67220;-63
2022/01/06 06:24:23;;;;;;;;;50.25;39.25;;;;;2.95;68.38;101344.91;5056869;28;63166;-64
2022/01/06 06:26:50;;;;;;;;;52.00;40.00;;;;;2.96;68.54;101351.78;5058792;28;45339;-63
2022/01/06 06:29:15;;;;;;;;;55.00;39.00;;;;;2.97;68.40;101352.63;5058537;28;46620;-65
2022/01/06 06:31:41;;;;;;;;;53.25;42.75;;;;;2.96;68.51;101353.53;5058490;28;45324;-64
2022/01/06 06:34:06;;;;;;;;;42.50;33.75;;;;;2.95;68.27;101354.44;5058112;28;62972;-65
2022/01/06 06:36:31;;;;;;;;;53.00;40.75;;;;;2.95;68.47;101360.47;5058563;28;45495;-66
2022/01/06 06:38:57;;;;;;;;;53.50;42.00;;;;;2.95;68.76;101357.88;5057419;28;70276;-63
2022/01/06 06:41:22;;;;;;;;;40.25;34.00;;;;;2.96;68.74;101358.72;5073944;28;45408;-65
2022/01/06 06:43:47;;;;;;;;;38.50;32.50;;;;;2.95;68.38;101365.66;5058216;28;53707;-65
2022/01/06 06:46:13;;;;;;;;;40.25;33.75;;;;;2.96;68.83;101371.72;5057706;28;67409;-64
2022/01/06 06:48:38;;;;;;;;;48.50;39.50;;;;;2.97;69.13;101368.22;5057402;28;70302;-63
2022/01/06 06:51:04;;;;;;;;;63.00;51.25;;;;;3.00;68.76;101372.41;5056954;28;45242;-63
2022/01/06 06:53:30;;;;;;;;;47.50;39.75;;;;;3.02;69.28;101366.25;5058422;28;45319;-66
2022/01/06 06:55:55;;;;;;;;;48.50;40.00;;;;;3.06;69.09;101365.22;5073652;28;45518;-65
2022/01/06 06:58:20;;;;;;;;;49.25;38.00;;;;;3.08;69.46;101367.72;5073586;28;47399;-65
2022/01/06 07:00:46;;;;;;;;;39.50;36.00;;;;;3.11;69.23;101376.25;5057000;28;72613;-64
2022/01/06 07:03:11;;;;;;;;;44.50;31.50;;;;;3.14;69.47;101375.25;5057613;28;62964;-66
2022/01/06 07:05:37;;;;;;;;;41.25;33.25;;;;;3.18;69.24;101376.00;5056443;28;59215;-63
2022/01/06 07:08:02;;;;;;;;;54.00;39.50;;;;;3.23;69.37;101374.00;5057990;28;45319;-64
2022/01/06 07:10:27;;;;;;;;;48.00;39.75;;;;;3.23;68.92;101369.66;5056655;28;45372;-64
2022/01/06 07:12:53;;;;;;;;;47.75;37.75;;;;;3.26;69.13;101373.88;5057888;28;47540;-62
2022/01/06 07:15:18;;;;;;;;;44.00;34.50;;;;;3.29;69.39;101381.53;5057821;28;45304;-65
2022/01/06 07:17:44;;;;;;;;;44.25;34.00;;;;;3.32;69.18;101377.97;5057699;28;47212;-65
2022/01/06 07:20:10;;;;;;;;;42.25;33.75;;;;;3.33;69.27;101375.28;5057492;28;50993;-65
2022/01/06 07:22:35;;;;;;;;;42.00;34.50;;;;;3.35;69.01;101377.84;5057822;28;45409;-64
2022/01/06 07:25:01;;;;;;;;;39.25;34.00;;;;;3.36;69.38;101377.75;5056607;28;45506;-64
2022/01/06 07:27:27;;;;;;;;;44.25;38.75;;;;;3.37;69.31;101379.44;5073228;28;45552;-63
2022/01/06 07:29:52;;;;;;;;;54.75;40.75;;;;;3.38;68.91;101383.72;5057527;28;45427;-65
2022/01/06 07:32:17;;;;;;;;;52.75;39.00;;;;;3.39;68.71;101390.59;5056847;28;65365;-67
2022/01/06 07:34:43;;;;;;;;;61.75;46.50;;;;;3.38;68.43;101388.91;5055387;28;67809;-62
2022/01/06 07:37:08;;;;;;;;;69.00;51.00;;;;;3.40;68.67;101386.28;5055117;28;46477;-64
2022/01/06 07:39:34;;;;;;;;;65.00;50.75;;;;;3.40;68.38;101386.28;5056504;28;69819;-65
2022/01/06 07:41:59;;;;;;;;;71.50;51.25;;;;;3.38;68.43;101390.69;5056560;28;65351;-66
2022/01/06 07:44:24;;;;;;;;;68.75;51.00;;;;;3.38;68.19;101393.28;5057378;28;45240;-63
2022/01/06 07:46:50;;;;;;;;;75.75;55.50;;;;;3.37;68.46;101387.22;5057300;28;45196;-63
2022/01/06 07:49:15;;;;;;;;;76.75;56.25;;;;;3.35;68.17;101393.41;5057298;28;45165;-63
2022/01/06 07:51:41;;;;;;;;;80.00;59.25;;;;;3.32;68.56;101404.78;5055236;28;67486;-66
2022/01/06 07:54:06;;;;;;;;;77.50;57.75;;;;;3.33;68.46;101405.63;5072017;28;67491;-63
2022/01/06 07:56:32;;;;;;;;;60.25;48.50;;;;;3.33;68.25;101411.66;5055971;28;46414;-64
2022/01/06 07:58:57;;;;;;;;;72.00;53.25;;;;;3.34;68.39;101405.53;5057088;28;45222;-63
2022/01/06 08:01:23;;;;;;;;;75.00;53.75;;;;;3.34;68.27;101402.94;5056018;28;45269;-64
2022/01/06 08:03:48;;;;;;;;;76.50;56.25;;;;;3.36;68.53;101406.31;5055424;28;59168;-66
2022/01/06 08:06:14;;;;;;;;;67.50;51.50;;;;;3.39;68.39;101415.75;5057022;28;46328;-64
2022/01/06 08:08:39;;;;;;;;;72.50;54.25;;;;;3.39;68.18;101411.38;5055730;28;45371;-63
2022/01/06 08:11:05;;;;;;;;;67.75;54.25;;;;;3.40;68.16;101417.44;5055670;28;45434;-64
2022/01/06 08:13:30;;;;;;;;;69.25;54.75;;;;;3.41;68.13;101414.75;5057003;28;45540;-63
2022/01/06 08:15:56;;;;;;;;;91.75;76.50;;;;;3.40;68.09;101412.25;5056841;28;45709;-63
2022/01/06 08:18:21;;;;;;;;;72.00;57.50;;;;;3.41;68.33;101417.34;5055299;28;46131;-64
2022/01/06 08:20:46;;;;;;;;;70.00;52.50;;;;;3.43;68.25;101417.31;5056151;28;63978;-65
2022/01/06 08:23:12;;;;;;;;;68.75;51.00;;;;;3.44;68.28;101412.94;5072807;28;45537;-65
2022/01/06 08:25:37;;;;;;;;;73.00;53.00;;;;;3.45;68.26;101417.22;5056084;28;64753;-64
2022/01/06 08:28:03;;;;;;;;;69.00;52.75;;;;;3.44;68.39;101411.19;5056743;28;45358;-63
2022/01/06 08:30:29;;;;;;;;;68.25;52.50;;;;;3.47;68.45;101418.00;5071540;28;45384;-65
2022/01/06 08:32:55;;;;;;;;;70.75;51.75;;;;;3.49;68.58;101417.00;5056777;28;45584;-64
2022/01/06 08:35:21;;;;;;;;;72.00;54.25;;;;;3.53;68.56;101413.38;5046466;28;46116;-66
2022/01/06 08:37:46;;;;;;;;;74.00;54.00;;;;;3.55;68.61;101415.91;5043026;28;45882;-65
2022/01/06 08:40:12;;;;;;;;;70.25;55.25;;;;;3.53;68.73;101418.56;5038006;28;45674;-63
2022/01/06 08:42:37;;;;;;;;;53.75;41.00;;;;;3.56;68.57;101422.78;5041589;28;58407;-63
2022/01/06 08:45:03;;;;;;;;;75.00;54.25;;;;;3.56;68.69;101422.78;5057480;28;45465;-63
2022/01/06 08:47:29;;;;;;;;;80.50;59.00;;;;;3.56;68.75;101417.59;5061758;28;45510;-63
2022/01/06 08:49:55;;;;;;;;;76.25;58.25;;;;;3.61;68.48;101431.22;5064009;28;45602;-65
2022/01/06 08:52:20;;;;;;;;;76.50;57.00;;;;;3.62;68.72;101430.31;5045152;28;45628;-63
2022/01/06 08:54:46;;;;;;;;;83.25;61.00;;;;;3.65;69.16;101430.19;5046289;28;47041;-64
2022/01/06 08:57:11;;;;;;;;;73.50;56.75;;;;;3.68;68.70;101431.78;5047427;28;50372;-64
2022/01/06 08:59:37;;;;;;;;;80.50;57.50;;;;;3.71;69.17;101422.09;5047020;28;45592;-64
2022/01/06 09:02:02;;;;;;;;;76.00;58.00;;;;;3.76;68.86;101423.63;5060721;28;59759;-64
2022/01/06 09:04:28;;;;;;;;;79.75;59.25;;;;;3.78;68.61;101427.88;5037959;28;46385;-64
2022/01/06 09:06:53;;;;;;;;;75.75;56.00;;;;;3.82;68.86;101433.75;5062669;28;53289;-64
2022/01/06 09:09:19;;;;;;;;;74.75;56.00;;;;;3.86;68.91;101433.56;5042004;28;45446;-64
2022/01/06 09:11:44;;;;;;;;;76.00;56.25;;;;;3.91;68.93;101433.34;5042196;28;45521;-67
2022/01/06 09:14:10;;;;;;;;;73.00;54.00;;;;;3.94;68.73;101438.41;5038189;28;67610;-62
2022/01/06 09:16:36;;;;;;;;;73.25;56.25;;;;;3.99;68.73;101441.63;5040382;28;45553;-64
2022/01/06 09:19:02;;;;;;;;;69.50;53.75;;;;;4.03;68.39;101437.13;5042846;28;45403;-62
2022/01/06 09:21:27;;;;;;;;;79.25;59.25;;;;;4.08;68.51;101444.72;5039501;28;59029;-63
2022/01/06 09:23:53;;;;;;;;;75.25;58.25;;;;;4.13;68.57;101445.34;5041334;28;71411;-63
2022/01/06 09:26:18;;;;;;;;;83.50;63.00;;;;;4.18;68.37;101440.78;5045682;28;45708;-67
2022/01/06 09:28:44;;;;;;;;;91.50;68.75;;;;;4.23;68.55;101443.16;5026225;28;45496;-63
2022/01/06 09:31:09;;;;;;;;;104.50;89.50;;;;;4.28;68.25;101443.78;5042915;28;45264;-64
2022/01/06 09:33:35;;;;;;;;;106.75;86.75;;;;;4.33;67.99;101443.56;5040843;28;60238;-65
2022/01/06 09:36:00;;;;;;;;;95.50;83.75;;;;;4.36;68.06;101444.28;5043700;28;71063;-64
2022/01/06 09:38:25;;;;;;;;;98.75;79.75;;;;;4.42;67.95;101445.72;5042619;28;56290;-62
2022/01/06 09:40:51;;;;;;;;;97.25;76.50;;;;;4.47;67.97;101451.56;5040469;28;66043;-65
2022/01/06 09:43:23;;;;;;;;;92.00;75.25;;;;;4.51;67.99;101450.50;5042285;28;45399;-64
2022/01/06 09:45:48;;;;;;;;;91.25;74.50;;;;;4.57;67.80;101452.78;5056419;28;45509;-65
2022/01/06 09:48:14;;;;;;;;;88.25;68.25;;;;;4.64;67.57;101455.94;5045996;28;64952;-64
2022/01/06 09:50:42;;;;;;;;;92.25;72.00;;;;;4.70;67.99;101467.81;5039135;28;45624;-63
2022/01/06 09:53:10;;;;;;;;;86.50;66.75;;;;;4.84;68.07;101462.75;5046430;28;45523;-66
2022/01/06 09:55:36;;;;;;;;;89.50;71.75;;;;;4.97;67.69;101463.03;5043510;28;45427;-66
2022/01/06 09:58:01;;;;;;;;;86.00;64.00;;;;;5.09;67.62;101464.16;5055361;28;45613;-67
2022/01/06 10:00:28;;;;;;;;;88.50;67.50;;;;;5.19;67.21;101470.59;5047643;28;45437;-66
2022/01/06 10:02:54;;;;;;;;;86.25;64.25;;;;;5.30;67.08;101475.25;5046409;28;45504;-65
2022/01/06 10:05:20;;;;;;;;;83.50;62.50;;;;;5.38;66.84;101469.63;5053526;28;45301;-67
2022/01/06 10:07:45;;;;;;;;;82.00;62.25;;;;;5.45;66.87;101464.97;5053764;28;45362;-63
2022/01/06 10:10:12;;;;;;;;;79.75;58.25;;;;;5.50;66.40;101469.00;5046739;28;45390;-65
2022/01/06 10:12:39;;;;;;;;;54.75;42.00;;;;;5.56;66.41;101470.47;5038697;28;46944;-62
2022/01/06 10:15:15;;;;;;;;;81.00;61.25;;;;;5.62;66.22;101474.50;5048865;28;45602;-63
2022/01/06 10:17:40;;;;;;;;;89.50;63.25;;;;;5.65;66.31;101472.56;5040124;28;45301;-62
2022/01/06 10:20:16;;;;;;;;;81.75;60.25;;;;;5.67;66.24;101464.69;5039623;28;63873;-66
2022/01/06 10:22:49;;;;;;;;;78.50;60.75;;;;;5.70;66.27;101466.25;5039829;28;46624;-64
2022/01/06 10:25:15;;;;;;;;;74.25;58.75;;;;;5.73;66.30;101463.50;5037143;28;45745;-63
2022/01/06 10:27:41;;;;;;;;;84.00;66.00;;;;;5.75;66.46;101464.25;5049192;28;45239;-64
2022/01/06 10:30:07;;;;;;;;;86.50;67.00;;;;;5.77;66.61;101465.88;5045204;28;45467;-64
2022/01/06 10:32:33;;;;;;;;;80.50;61.00;;;;;5.81;66.40;101470.94;5047261;28;46306;-62
2022/01/06 10:35:04;;;;;;;;;72.00;54.75;;;;;5.85;66.46;101464.59;5048637;28;65346;-65
2022/01/06 10:37:31;;;;;;;;;71.75;54.00;;;;;5.91;66.50;101461.66;5056376;28;45454;-68
2022/01/06 10:39:58;;;;;;;;;62.25;46.75;;;;;5.97;66.40;101468.34;5062353;28;45524;-63
2022/01/06 10:42:25;;;;;;;;;53.00;37.75;;;;;6.02;65.99;101464.56;5062406;28;45537;-63
2022/01/06 10:44:52;;;;;;;;;52.75;37.50;;;;;6.05;66.00;101464.41;5045194;28;45915;-62
2022/01/06 10:47:37;;;;;;;;;43.00;36.00;;;;;6.13;65.68;101460.53;5053779;28;45473;-64
2022/01/06 10:50:26;;;;;;;;;46.25;35.75;;;;;6.20;65.50;101461.88;5067556;28;45448;-66
2022/01/06 10:52:58;;;;;;;;;78.50;60.00;;;;;6.25;65.94;101459.88;5047574;28;46230;-64
2022/01/06 10:55:28;;;;;;;;;75.75;57.25;;;;;6.28;65.90;101454.47;5040338;28;45494;-67
2022/01/06 10:58:01;;;;;;;;;78.25;58.50;;;;;6.32;65.87;101450.78;5060704;28;46121;-64
2022/01/06 11:00:30;;;;;;;;;76.00;58.50;;;;;6.37;65.99;101445.28;5051304;28;46348;-64
2022/01/06 11:03:24;;;;;;;;;76.50;57.75;;;;;6.44;65.99;101444.00;5047659;28;46760;-65
2022/01/06 11:05:53;;;;;;;;;76.50;58.25;;;;;6.52;65.74;101440.97;5049311;28;45821;-65
2022/01/06 11:08:25;;;;;;;;;76.75;57.50;;;;;6.60;65.65;101438.75;5048851;28;45383;-66
2022/01/06 11:11:13;;;;;;;;;56.75;45.00;;;;;6.70;64.84;101438.22;5046559;28;45500;-63
2022/01/06 11:13:41;;;;;;;;;52.00;41.25;;;;;6.80;64.63;101442.00;5039168;28;46151;-63
2022/01/06 11:16:07;;;;;;;;;55.00;44.50;;;;;6.88;64.21;101438.94;5049230;28;45336;-63
2022/01/06 11:18:32;;;;;;;;;51.25;41.50;;;;;6.93;63.79;101434.28;5045591;28;45494;-63
2022/01/06 11:21:12;;;;;;;;;57.50;46.00;;;;;6.98;63.39;101427.84;5048820;28;55712;-64